Impacts TAF Board INFO
FOR SITUATIONAL AWARENESS. NOT TO BE USED FOR FLIGHT PLANNING PURPOSES.
IDs:

KSAN - San Diego Intl Arpt, CA, US

Issued at 0311 UTC 23 May 2018
Updated at 0323 UTC 23 May 2018
Potential Impact None Slight Moderate High
Time0251Z 23/04Z 23/05Z 23/06Z 23/07Z 23/08Z 23/09Z 23/10Z 23/11Z 23/12Z 23/13Z 23/14Z 23/15Z 23/16Z>>
Type OBS PRVL PRVL PRVL PRVL PRVL PRVL PRVL PRVL PRVL PRVL PRVL PRVL PRVL
VIS 10 >6 >6 >6 >6 >6 >6 >6 >6 >6 >6 >6 >6 >6
CIG -- -- 15 15 15 15 15 15 15 15 15 15 15 15
Cover FEW SCT OVC OVC OVC OVC OVC OVC OVC OVC OVC OVC OVC OVC
FltCat VFR VFR MVFR MVFR MVFR MVFR MVFR MVFR MVFR MVFR MVFR MVFR MVFR MVFR
WX -- -- -- -- -- -- -- -- -- -- -- -- -- --
WDir 300 VRB VRB VRB VRB VRB VRB VRB VRB VRB VRB VRB VRB VRB
WSpd 4 4 4 4 4 4 4 4 4 4 4 4 4 4
WGst -- -- -- -- -- -- -- -- -- -- -- -- -- --

Raw TAF
KSAN 230311Z 2303/2406 VRB04KT P6SM SCT020
  FM230500 VRB04KT P6SM OVC015
  FM231800 28008KT P6SM BKN020
  FM232100 29010KT P6SM SCT020
  FM240200 VRB04KT P6SM BKN015


Raw METAR
KSAN 230251Z 30004KT 10SM FEW030 17/11 A2993 RMK AO2 SLP135 T01720106 53003
KSAN 230151Z 28005KT 10SM FEW030 18/11 A2992 RMK AO2 SLP132 T01780106
KSAN 230051Z 28007KT 10SM FEW026 FEW035 18/10 A2992 RMK AO2 SLP130 T01830100

METAR Board
Radar Display
Forecast Discussion

FOR SITUATIONAL AWARENESS. NOT TO BE USED FOR FLIGHT PLANNING PURPOSES.